Tiempo atmosférico en la estación meteorológica de Valdezcaray, estación de esquí, La Rioja (1630 m.)



Fecha
DESCASC
Temp. máxima en grados centígrados (hora)
DESCASC
Temp. mínima en grados centígrados (hora)
DESCASC
Temp. media en grados centígrados
DESCASC
Racha de viento máxima en m/sg (hora)
DESCASC
Velocidad máxima media en intervalos de 10 minutos(hora)
DESCASC
Precipitaciones diarias en mm
DESCASC
Precipitaciones de 00:00 a 06:00 en mm
DESCASC
Precipitaciones de 06:00 a 12:00 en mm
DESCASC
Precipitaciones de 12:00 a 18:00 en mm
DESCASC
Precipitaciones de 18:00 a 24:00 en mm
DESCASC
14-02-2019 8.7 (14:30) 3 (04:50) 5.8 13.06 (13:20) 10.83 (08:20) 0 0 0 0 0
13-02-2019 7.8 (14:30) 0.3 (03:30) 4.1 11.11 (23:10) 8.89 (22:30) 0 0 0 0 0
12-02-2019 6.2 (15:50) -3.7 (01:20) 1.2 9.44 (04:40) 7.78 (04:30) 0 0 0 0 0
11-02-2019 -0.8 (15:30) -4.3 (06:20) -2.6 5 (02:30) 3.06 (03:00) 0.8 0.2 0.4 0.2 0
10-02-2019 4.3 (16:30) -1.2 (-00:0) 1.6 25.83 (02:00) 15.28 (00:50) 3 0.6 0.2 0.2 2
09-02-2019 7.2 (14:10) 0.9 (00:00) 4 20.83 (23:50) 9.17 (23:50) 0 0 0 0 0
08-02-2019 9.2 (14:40) 2.5 (00:00) 5.8 18.89 (18:50) 6.39 (10:50) 0 0 0 0 0
07-02-2019 5.4 (14:10) 1.4 (00:00) 3.4 10.83 (00:10) 6.39 (00:20) 0 0 0 0 0
06-02-2019 10.2 (12:50) 0.7 (00:00) 5.4 10 (22:00) 6.39 (22:10) 0 0 0 0 0
05-02-2019 6.5 (12:00) -0.6 (-00:0) 2.9 4.17 (16:30) 3.33 (16:10) 0 0 0 0 0
04-02-2019 2.6 (15:20) -7.5 (-00:0) -2.5 4.17 (19:00) 2.78 (17:00) 1.2 0.2 0 1 0
03-02-2019 -4.3 (15:30) -6.6 (-00:0) -5.5 6.67 (00:10) 2.78 (00:10) 5.6 3 1.6 0.6 0.4
02-02-2019 -3.3 (01:20) -6.3 (-00:0) -4.8 18.06 (04:20) 8.89 (03:40) 4.6 2 0.4 1.2 1
01-02-2019 2.5 (00:00) -3.7 (-00:0) -0.6 35.83 (14:50) 13.61 (16:30) 12.6 1.4 4.2 7 0
31-01-2019 4.7 (14:40) 0.2 (00:00) 2.4 28.33 (18:10) 12.22 (06:20) 19 0.6 0.8 6 11.6
30-01-2019 0.7 (22:50) -4.1 (-00:0) -1.7 28.33 (22:50) 11.67 (23:10) 0.6 0.2 0 0 0.4
29-01-2019 1.7 (16:10) -4.1 (-00:0) -1.2 25.56 (15:20) 12.78 (15:20) 0.2 0 0 0 0.2
28-01-2019 0.9 (09:20) -3.4 (-00:0) -1.3 25 (09:20) 13.33 (09:30) 0.2 0 0 0.2 0
27-01-2019 4.4 (00:00) -3.4 (-00:0) 0.5 20.83 (03:30) 9.44 (16:10) 0.2 0 0 0.2 0
26-01-2019 11.3 (14:00) -2.5 (-00:0) 4.4 9.17 (23:00) 4.17 (17:00) 0 0 0 0 0
25-01-2019 1.2 (01:20) -0.4 (00:00) 0.4 12.22 (05:50) 6.11 (03:10) 4.2 2.6 1.4 0 0.2
24-01-2019 0.9 (22:10) -1.1 (-00:0) -0.1 7.22 (00:20) 4.44 (00:20) 26 6.4 9.4 5.4 4.8
23-01-2019 0.3 (19:00) -2.1 (-00:0) -0.9 17.5 (17:50) 10 (19:30) 12 1 1 5.4 4.6
22-01-2019 -1.5 (12:10) -4.3 (-00:0) -2.9 2.5 (16:30) 1.11 (16:40) 7 3 0.6 1.8 1.6
21-01-2019 -2.4 (00:10) -4.4 (-00:0) -3.4 3.06 (04:20) 1.39 (00:20) 6.4 2.4 3.8 0 0.2
20-01-2019 0.2 (00:00) -2.5 (-00:0) -1.1 6.11 (08:10) 3.33 (08:20) 13.8 4.2 2.4 3 4.2
19-01-2019 1 (15:00) -2.4 (-00:0) -0.7 15 (16:20) 5.56 (15:30) 10.6 0 0 3 7.6

Gráficas

Temp. máximas Temp. mínimas Temp. medias Precipitaciones Rachas de viento máximas Velocidades máximas media en intervalos de 10 minutos

Datos horarios

Fecha y hora oficial Temperatura (ºC) Velocidad del viento (km/h) Dirección del viento Racha (km/h) Dirección de racha Precipitación (mm) Presión (hPa) Tendencia (hPa) Humedad (%)
2019-02-17 23:00:00 4.4 21 Sudeste 40 Sur 0 -- -- 38
2019-02-17 22:00:00 4.8 30 Sur 58 Sur 0 -- -- 34
2019-02-17 21:00:00 5.1 23 Sur 59 Sur 0 -- -- 34
2019-02-17 20:00:00 5.5 18 Sur 60 Sur 0 -- -- 35
2019-02-17 19:00:00 5.8 10 Noroeste 31 Sudoeste 0 -- -- 32
2019-02-17 18:00:00 6.4 9 Nordeste 34 Sur 0 -- -- 29
2019-02-17 17:00:00 8.1 4 Noroeste 22 Oeste 0 -- -- 29
2019-02-17 16:00:00 8.9 6 Sur 40 Sur 0 -- -- 24
2019-02-17 15:00:00 9 13 Sur 42 Sur 0 -- -- 18
2019-02-17 14:00:00 8.6 16 Sudeste 33 Sudeste 0 -- -- 19
2019-02-17 13:00:00 7.6 21 Sudeste 32 Sudeste 0 -- -- 25
2019-02-17 12:00:00 6.1 21 Sudeste 37 Sudeste 0 -- -- 30
2019-02-17 11:00:00 4.7 31 Sudeste 40 Sudeste 0 -- -- 27
2019-02-17 10:00:00 3.7 35 Sur 42 Sudeste 0 -- -- 31
2019-02-17 09:00:00 3 34 Sudeste 41 Sudeste 0 -- -- 39
2019-02-17 08:00:00 3 25 Sur 32 Sur 0 -- -- 41
2019-02-17 07:00:00 4 10 Sur 34 Sur 0 -- -- 32
2019-02-17 06:00:00 3.2 23 Sur 30 Sur 0 -- -- 42
2019-02-17 05:00:00 3 21 Sur 30 Sur 0 -- -- 42
2019-02-17 04:00:00 4.5 24 Sur 34 Sur 0 -- -- 35
2019-02-17 03:00:00 5.1 24 Sur 35 Sur 0 -- -- 33
2019-02-17 02:00:00 5.4 28 Sudeste 51 Sur 0 -- -- 28
2019-02-17 01:00:00 5.9 40 Sudeste 58 Sur 0 -- -- 26
2019-02-17 00:00:00 5.8 40 Sudeste 52 Sudeste 0 -- -- 25
2019-02-16 23:00:00 5.4 39 Sudeste 49 Sudeste 0 -- -- 33
2019-02-16 22:00:00 6.4 38 Sudeste 56 Sur 0 -- -- 30
2019-02-16 21:00:00 6.8 34 Sudeste 48 Sudeste 0 -- -- 28
2019-02-16 20:00:00 7.2 24 Sudeste 51 Sur 0 -- -- 28
2019-02-16 19:00:00 7.3 27 Sudeste 44 Sur 0 -- -- 30
2019-02-16 18:00:00 7.2 21 Sudeste 48 Sudeste 0 -- -- 43
2019-02-16 17:00:00 8.4 16 Sudeste 42 Sur 0 -- -- 37
2019-02-16 16:00:00 10.3 8 Sudoeste 20 Sur 0 -- -- 28
2019-02-16 15:00:00 9.6 8 Noroeste 29 Sudeste 0 -- -- 36
2019-02-16 14:00:00 10 3 Sudeste 26 Este 0 -- -- 42
2019-02-16 13:00:00 9.1 8 Sudeste 22 Este 0 -- -- 42
2019-02-16 12:00:00 6.8 16 Sudeste 26 Sur 0 -- -- 48
2019-02-16 11:00:00 5 20 Sudeste 29 Sur 0 -- -- 41
2019-02-16 10:00:00 3.5 26 Sudeste 30 Sudeste 0 -- -- 35
2019-02-16 09:00:00 3.8 21 Sudeste 27 Sudeste 0 -- -- 29
2019-02-16 08:00:00 6.4 19 Sudeste 26 Sudeste 0 -- -- 18
2019-02-16 07:00:00 3.9 23 Sudeste 31 Sudeste 0 -- -- 22
2019-02-16 06:00:00 4.7 22 Sudeste 27 Sudeste 0 -- -- 23
2019-02-16 05:00:00 3.3 7 Sudeste 20 Este 0 -- -- 35
2019-02-16 04:00:00 4.2 10 Este 19 Este 0 -- -- 33
2019-02-16 03:00:00 7 13 Sudeste 23 Sudeste 0 -- -- 25
2019-02-16 02:00:00 6.4 20 Sudeste 23 Sudeste 0 -- -- 35
2019-02-16 01:00:00 5.7 21 Sudeste 28 Sudeste 0 -- -- 37
2019-02-16 00:00:00 6.2 21 Sudeste 23 Sudeste 0 -- -- 38
2019-02-15 23:00:00 6.2 17 Sudeste 19 Este 0 -- -- 38
2019-02-15 22:00:00 6.4 16 Este 19 Este 0 -- -- 38
2019-02-15 21:00:00 4 7 Sur 24 Sudeste 0 -- -- 56
2019-02-15 20:00:00 5.9 13 Este 18 Este 0 -- -- 51
2019-02-15 19:00:00 4.4 9 Sur 17 Sur 0 -- -- 59
2019-02-15 18:00:00 4.4 9 Sudeste 18 Sur 0 -- -- 65
2019-02-15 17:00:00 5.5 9 Sudeste 14 Sur 0 -- -- 62
2019-02-15 16:00:00 5.8 9 Sur 14 Sur 0 -- -- 60
2019-02-15 15:00:00 7.1 7 Sur 16 Sur 0 -- -- 52
2019-02-15 14:00:00 6.4 12 Sur 18 Sur 0 -- -- 50
2019-02-15 13:00:00 4.8 16 Sur 25 Sur 0 -- -- 54
2019-02-15 12:00:00 4 18 Sudeste 23 Sur 0 -- -- 52
2019-02-15 11:00:00 3.8 13 Sudeste 15 Sudeste 0 -- -- 47
2019-02-15 10:00:00 4.7 10 Sudeste 22 Sur 0 -- -- 38
2019-02-15 09:00:00 2.6 12 Sudeste 19 Sudeste 0 -- -- 44
2019-02-15 08:00:00 2.1 12 Sudeste 24 Sur 0 -- -- 49
2019-02-15 07:00:00 3.2 14 Sudeste 21 Sudeste 0 -- -- 43
2019-02-15 06:00:00 3.5 13 Sudeste 22 Sudeste 0 -- -- 38
2019-02-15 05:00:00 4.2 17 Sudeste 22 Sur 0 -- -- 39
2019-02-15 04:00:00 3.3 17 Sur 21 Sudeste 0 -- -- 44
2019-02-15 03:00:00 4 15 Sur 19 Sudeste 0 -- -- 43
2019-02-15 02:00:00 4.7 13 Sur 19 Sur 0 -- -- 40
2019-02-15 01:00:00 6.5 14 Sudeste 19 Sudeste 0 -- -- 33
2019-02-15 00:00:00 4.9 10 Sudeste 19 Sudeste 0 -- -- 42
2019-02-14 23:00:00 5.7 9 Sudeste 33 Sudeste 0 -- -- 33
2019-02-14 22:00:00 6.8 10 Este 18 Este 0 -- -- 32
2019-02-14 21:00:00 6.6 6 Este 41 Sudeste 0 -- -- 31
2019-02-14 20:00:00 5.6 28 Sudeste 34 Sudeste 0 -- -- 36
2019-02-14 19:00:00 6.2 24 Sudeste 34 Sudeste 0 -- -- 35
2019-02-14 18:00:00 6.3 27 Sudeste 33 Sudeste 0 -- -- 34
2019-02-14 17:00:00 6.3 25 Sur 31 Sudeste 0 -- -- 39
2019-02-14 16:00:00 7.3 28 Sur 39 Sudeste 0 -- -- 35
2019-02-14 15:00:00 7.8 33 Sudeste 41 Sudeste 0 -- -- 33
2019-02-14 14:00:00 8.2 33 Sudeste 47 Sudeste 0 -- -- 30
2019-02-14 13:00:00 7.5 30 Sudeste 38 Sudeste 0 -- -- 39
2019-02-14 12:00:00 7 29 Sur 40 Sudeste 0 -- -- 39
2019-02-14 11:00:00 7 33 Sudeste 44 Sur 0 -- -- 36
2019-02-14 10:00:00 6.5 33 Sudeste 42 Sudeste 0 -- -- 39
2019-02-14 09:00:00 6.5 37 Sudeste 46 Sudeste 0 -- -- 36
2019-02-14 08:00:00 6.1 36 Sudeste 47 Sudeste 0 -- -- 37
2019-02-14 07:00:00 5.4 35 Sudeste 45 Sudeste 0 -- -- 43
2019-02-14 06:00:00 5.2 31 Sudeste 37 Sudeste 0 -- -- 39
2019-02-14 05:00:00 5.1 30 Sudeste 36 Sudeste 0 -- -- 37
2019-02-14 04:00:00 5.1 22 Sudeste 30 Sudeste 0 -- -- 39
2019-02-14 03:00:00 5.5 23 Sudeste 32 Sudeste 0 -- -- 38
2019-02-14 02:00:00 5.2 20 Sur 32 Sur 0 -- -- 39
2019-02-14 01:00:00 4.4 26 Sudeste 36 Sudeste 0 -- -- 54
2019-02-14 00:00:00 4.9 26 Sudeste 40 Sudeste 0 -- -- 51
2019-02-13 23:00:00 5 30 Sudeste 39 Sudeste 0 -- -- 53
2019-02-13 22:00:00 5.1 17 Sur 32 Sur 0 -- -- 49
2019-02-13 21:00:00 5.1 6 Sur 20 Sur 0 -- -- 50
2019-02-13 20:00:00 4.4 6 Sudoeste 26 Sudeste 0 -- -- 59
2019-02-13 19:00:00 5.3 9 Sur 24 Sur 0 -- -- 53
2019-02-13 18:00:00 5.3 18 Sur 28 Sur 0 -- -- 53
2019-02-13 17:00:00 6.4 11 Sur 21 Sur 0 -- -- 48
2019-02-13 16:00:00 6.3 14 Sur 19 Sur 0 -- -- 54
2019-02-13 15:00:00 6.9 12 Sur 19 Sur 0 -- -- 50
2019-02-13 14:00:00 5.6 15 Sur 24 Sudeste 0 -- -- 53
2019-02-13 13:00:00 6.4 13 Sur 22 Sur 0 -- -- 45
2019-02-13 12:00:00 5.5 13 Sudeste 18 Sudeste 0 -- -- 40
2019-02-13 11:00:00 1.7 9 Sudeste 16 Sudeste 0 -- -- 44
2019-02-13 10:00:00 3 9 Sudeste 15 Sudeste 0 -- -- 39
2019-02-13 09:00:00 2.2 12 Sudeste 16 Sudeste 0 -- -- 36
2019-02-13 08:00:00 2.9 12 Sudeste 15 Sudeste 0 -- -- 31
2019-02-13 07:00:00 2.5 8 Sudeste 16 Sudeste 0 -- -- 33
2019-02-13 06:00:00 2 9 Sudeste 14 Sudeste 0 -- -- 35
2019-02-13 05:00:00 1.9 8 Sudeste 15 Sur 0 -- -- 38
2019-02-13 04:00:00 0.9 4 Sudeste 20 Sur 0 -- -- 40
2019-02-13 03:00:00 0.6 10 Sur 21 Sudeste 0 -- -- 42
2019-02-13 02:00:00 2.9 9 Este 19 Sudeste 0 -- -- 36
2019-02-13 01:00:00 1.5 10 Sudeste 19 Sur 0 -- -- 34
2019-02-13 00:00:00 0.9 8 Sudeste 18 Sur 0 -- -- 63
2019-02-12 23:00:00 1.3 4 Sur 19 Sudeste 0 -- -- 53
2019-02-12 22:00:00 1.9 12 Sur 17 Sur 0 -- -- 40
2019-02-12 21:00:00 4 7 Sudeste 14 Sur 0 -- -- 46
2019-02-12 20:00:00 1.4 9 Sudeste 15 Sur 0 -- -- 58
2019-02-12 19:00:00 4.4 7 Este 12 Este 0 -- -- 52
2019-02-12 18:00:00 0.9 8 Sudeste 13 Sur 0 -- -- 70
2019-02-12 17:00:00 3.6 6 Sur 14 Sur 0 -- -- 53
2019-02-12 16:00:00 4.5 13 Sur 17 Sur 0 -- -- 52
2019-02-12 15:00:00 5.6 8 Sur 23 Sudeste 0 -- -- 40
2019-02-12 14:00:00 5.8 16 Este 26 Sudeste 0 -- -- 24
2019-02-12 13:00:00 4.9 19 Sudeste 24 Sudeste 0 -- -- 32
2019-02-12 12:00:00 3.3 20 Sudeste 23 Sudeste 0 -- -- 26
2019-02-12 11:00:00 2.7 18 Sudeste 23 Este 0 -- -- 21
2019-02-12 10:00:00 2.1 21 Sudeste 25 Este 0 -- -- 20
2019-02-12 09:00:00 1.5 15 Este 23 Este 0 -- -- 24
2019-02-12 08:00:00 -2.4 3 Sur 17 Este 0 -- -- 43
2019-02-12 07:00:00 -1.8 10 Este 18 Este 0 -- -- 45
2019-02-12 06:00:00 -1 7 Este 27 Sudeste 0 -- -- 43
2019-02-12 05:00:00 1.2 27 Sudeste 34 Sudeste 0 -- -- 31
2019-02-12 04:00:00 1 23 Sudeste 29 Sudeste 0 -- -- 52
2019-02-12 03:00:00 -2.1 10 Sudeste 18 Sudeste 0 -- -- 83
2019-02-12 02:00:00 -3.4 6 Sudeste 13 Sudeste 0 -- -- 92
2019-02-12 01:00:00 -3.6 2 Norte 14 Sur 0 -- -- 100
2019-02-12 00:00:00 -2.5 6 Sur 13 Sur 0 -- -- 100
2019-02-11 23:00:00 -2.4 3 Sur 10 Este 0 -- -- 100
2019-02-11 22:00:00 -2 4 Noroeste 12 Nordeste 0 -- -- 100
2019-02-11 21:00:00 -2.2 4 Norte 13 Oeste 0 -- -- 100
2019-02-11 20:00:00 -1.9 4 Noroeste 13 Noroeste 0 -- -- 100
2019-02-11 19:00:00 -1.9 5 Noroeste 12 Noroeste 0 -- -- 100
2019-02-11 18:00:00 -1.7 5 Noroeste 12 Oeste 0 -- -- 99
2019-02-11 17:00:00 -0.9 7 Noroeste 12 Noroeste 0 -- -- 100
2019-02-11 16:00:00 -1.1 7 Noroeste 16 Noroeste 0 -- -- 100
2019-02-11 15:00:00 -1.1 8 Noroeste 14 Oeste 0 -- -- 100
2019-02-11 14:00:00 -1.4 6 Noroeste 12 Noroeste 0 -- -- 100
2019-02-11 13:00:00 -1.5 7 Noroeste 12 Oeste 0.2 -- -- 100
2019-02-11 12:00:00 -1.8 3 Oeste 8 Sur 0.4 -- -- 99
2019-02-11 11:00:00 -2.5 5 Noroeste 10 Oeste 0 -- -- 99
2019-02-11 10:00:00 -2.9 4 Sudeste 9 Noroeste 0 -- -- 99
2019-02-11 09:00:00 -3.2 4 Noroeste 11 Noroeste 0 -- -- 99
2019-02-11 08:00:00 -3.1 3 Noroeste 10 Oeste 0 -- -- 99
2019-02-11 07:00:00 -4.1 2 Este 5 Norte 0 -- -- 98
2019-02-11 06:00:00 -4.1 0 Calma 6 Noroeste 0 -- -- 98
2019-02-11 05:00:00 -3.7 2 Oeste 12 Noroeste 0 -- -- 98
2019-02-11 04:00:00 -3 8 Noroeste 14 Noroeste 0 -- -- 99
2019-02-11 03:00:00 -2.6 11 Noroeste 18 Noroeste 0 -- -- 100
2019-02-11 02:00:00 -1.8 8 Noroeste 15 Noroeste 0 -- -- 100
2019-02-11 01:00:00 -1.4 10 Noroeste 16 Noroeste 0.2 -- -- 100
2019-02-11 00:00:00 -1.2 9 Noroeste 15 Noroeste 0 -- -- 100
2019-02-10 23:00:00 -0.7 8 Noroeste 16 Noroeste 0 -- -- 100
2019-02-10 22:00:00 -0.3 4 Noroeste 11 Noroeste 0.2 -- -- 100
2019-02-10 21:00:00 -0.2 4 Noroeste 14 Oeste 0.4 -- -- 100
2019-02-10 20:00:00 0.4 6 Noroeste 14 Noroeste 0.8 -- -- 100
2019-02-10 19:00:00 1.1 5 Noroeste 13 Noroeste 0.6 -- -- 100
2019-02-10 18:00:00 2.1 10 Noroeste 35 Noroeste 0 -- -- 100
2019-02-10 17:00:00 4.3 17 Noroeste 37 Noroeste 0 -- -- 88
2019-02-10 16:00:00 4.2 24 Noroeste 60 Norte 0 -- -- 92
2019-02-10 15:00:00 3.9 24 Norte 63 Norte 0 -- -- 93
2019-02-10 14:00:00 3.4 29 Norte 64 Noroeste 0.2 -- -- 95
2019-02-10 13:00:00 3 19 Norte 69 Norte 0 -- -- 97
2019-02-10 12:00:00 2.2 26 Norte 85 Nordeste 0.2 -- -- 100
2019-02-10 11:00:00 1.7 26 Noroeste 71 Norte 0 -- -- 100
2019-02-10 10:00:00 1.7 28 Nordeste 73 Norte 0 -- -- 99
2019-02-10 09:00:00 1.9 24 Norte 68 Este 0 -- -- 96
2019-02-10 08:00:00 1.9 23 Sudeste 75 Noroeste 0 -- -- 92
2019-02-10 07:00:00 1.6 22 Nordeste 84 Noroeste 0 -- -- 93
2019-02-10 06:00:00 1.3 21 Norte 66 Sur 0 -- -- 92
2019-02-10 05:00:00 1.2 26 Norte 78 Sudeste 0 -- -- 90
2019-02-10 04:00:00 1.3 20 Norte 79 Sudeste 0 -- -- 86
2019-02-10 03:00:00 1.8 34 Sur 91 Sur 0 -- -- 83
2019-02-10 02:00:00 1.5 35 Sur 93 Sur 0.4 -- -- 78
2019-02-10 01:00:00 2.3 48 Sur 91 Sur 0.2 -- -- 63
2019-02-10 00:00:00 3.2 24 Sudeste 75 Sur 0 -- -- 58
2019-02-09 23:00:00 3.1 23 Sudeste 58 Sur 0 -- -- 69
2019-02-09 22:00:00 3.7 27 Sur 68 Sur 0 -- -- 63
2019-02-09 21:00:00 4.1 21 Sudeste 69 Sur 0 -- -- 54
2019-02-09 20:00:00 4.1 12 Sudeste 39 Nordeste 0 -- -- 51
2019-02-09 19:00:00 4.5 12 Oeste 50 Sur 0 -- -- 53
2019-02-09 18:00:00 4.8 24 Sur 48 Sur 0 -- -- 46
2019-02-09 17:00:00 5.2 10 Sur 36 Sur 0 -- -- 45
2019-02-09 16:00:00 6.4 14 Noroeste 44 Sur 0 -- -- 34
2019-02-09 15:00:00 6.2 10 Oeste 42 Sur 0 -- -- 44
2019-02-09 14:00:00 6.5 6 Sur 19 Este 0 -- -- 57
2019-02-09 13:00:00 5.6 8 Noroeste 22 Norte 0 -- -- 53
2019-02-09 12:00:00 6.6 8 Sur 35 Sur 0 -- -- 42
2019-02-09 11:00:00 5.1 12 Sudoeste 32 Sudoeste 0 -- -- 44
2019-02-09 10:00:00 4.8 8 Noroeste 25 Oeste 0 -- -- 45
2019-02-09 09:00:00 3.1 7 Sudoeste 18 Sur 0 -- -- 62
2019-02-09 08:00:00 1.5 6 Sur 21 Sudoeste 0 -- -- 67
2019-02-09 07:00:00 1.3 11 Sudoeste 20 Sur 0 -- -- 69
2019-02-09 06:00:00 2.5 15 Sudoeste 36 Sudoeste 0 -- -- 71
2019-02-09 05:00:00 1.8 19 Sudoeste 34 Sudoeste 0 -- -- 84
2019-02-09 04:00:00 2 21 Sudoeste 39 Sudoeste 0 -- -- 84
2019-02-09 03:00:00 2.1 22 Sudoeste 37 Sudoeste 0 -- -- 80
2019-02-09 02:00:00 2 16 Sudoeste 44 Noroeste 0 -- -- 81
2019-02-09 01:00:00 3.6 12 Norte 55 Noroeste 0 -- -- 64
2019-02-09 00:00:00 2.8 10 Noroeste 47 Noroeste 0 -- -- 68
2019-02-08 23:00:00 3.6 11 Noroeste 56 Sur 0 -- -- 45
2019-02-08 22:00:00 3.7 12 Norte 51 Sudeste 0 -- -- 40
2019-02-08 21:00:00 4.2 17 Sudeste 50 Este 0 -- -- 38
2019-02-08 20:00:00 3.4 11 Nordeste 49 Sudeste 0 -- -- 47
2019-02-08 19:00:00 4.7 17 Sudeste 68 Sur 0 -- -- 41
2019-02-08 18:00:00 5.1 20 Sudeste 53 Sudeste 0 -- -- 46
2019-02-08 17:00:00 5 17 Sur 53 Sudeste 0 -- -- 50
2019-02-08 16:00:00 7.1 17 Sur 44 Sur 0 -- -- 41
2019-02-08 15:00:00 7.6 6 Sudoeste 32 Sur 0 -- -- 41
2019-02-08 14:00:00 8.4 14 Noroeste 37 Norte 0 -- -- 29
2019-02-08 13:00:00 7.7 11 Noroeste 33 Noroeste 0 -- -- 31
2019-02-08 12:00:00 7.7 9 Norte 44 Norte 0 -- -- 29
2019-02-08 11:00:00 6.3 15 Noroeste 45 Norte 0 -- -- 23
2019-02-08 10:00:00 5.6 12 Noroeste 55 Noroeste 0 -- -- 25
2019-02-08 09:00:00 6 12 Noroeste 37 Noroeste 0 -- -- 24
2019-02-08 08:00:00 6.6 20 Norte 44 Noroeste 0 -- -- 22
2019-02-08 07:00:00 5.4 7 Nordeste 43 Norte 0 -- -- 29
2019-02-08 06:00:00 6.6 21 Norte 47 Norte 0 -- -- 27
2019-02-08 05:00:00 6.2 11 Sur 35 Sudeste 0 -- -- 25
2019-02-08 04:00:00 6.2 10 Sudeste 26 Oeste 0 -- -- 25
2019-02-08 03:00:00 6 8 Sudoeste 24 Noroeste 0 -- -- 27
2019-02-08 02:00:00 5 6 Sur 26 Sur 0 -- -- 30
2019-02-08 01:00:00 3.7 9 Sudoeste 20 Sudoeste 0 -- -- 42
2019-02-08 00:00:00 3.3 6 Sudeste 19 Sudoeste 0 -- -- 42
2019-02-07 23:00:00 2.7 6 Este 13 Sudeste 0 -- -- 45
2019-02-07 22:00:00 2 7 Sudeste 12 Sudeste 0 -- -- 55
2019-02-07 21:00:00 2.9 4 Sudoeste 31 Sudoeste 0 -- -- 53
2019-02-07 20:00:00 2.6 14 Sudoeste 31 Sur 0 -- -- 71
2019-02-07 19:00:00 2 7 Norte 18 Norte 0 -- -- 86
2019-02-07 18:00:00 1.9 5 Sudeste 6 Sur 0 -- -- 95
2019-02-07 17:00:00 2.3 3 Noroeste 12 Noroeste 0 -- -- 97
2019-02-07 16:00:00 2.6 9 Noroeste 18 Noroeste 0 -- -- 94
2019-02-07 15:00:00 4.4 5 Noroeste 11 Noroeste 0 -- -- 78
2019-02-07 14:00:00 5 5 Noroeste 17 Noroeste 0 -- -- 73
2019-02-07 13:00:00 3.4 10 Noroeste 17 Oeste 0 -- -- 79
2019-02-07 12:00:00 2.7 7 Noroeste 20 Noroeste 0 -- -- 81
2019-02-07 11:00:00 2 12 Noroeste 22 Noroeste 0 -- -- 85
2019-02-07 10:00:00 2.4 16 Noroeste 25 Norte 0 -- -- 80
2019-02-07 09:00:00 2.8 14 Noroeste 33 Oeste 0 -- -- 78
2019-02-07 08:00:00 3.3 9 Noroeste 20 Noroeste 0 -- -- 69
2019-02-07 07:00:00 3.9 10 Noroeste 25 Noroeste 0 -- -- 60
2019-02-07 06:00:00 4.3 11 Oeste 22 Oeste 0 -- -- 59
2019-02-07 05:00:00 4.2 9 Oeste 19 Oeste 0 -- -- 54
2019-02-07 04:00:00 5 9 Oeste 29 Sudoeste 0 -- -- 37
2019-02-07 03:00:00 4 18 Sudoeste 37 Sudoeste 0 -- -- 36
2019-02-07 02:00:00 3.8 21 Sudoeste 34 Sudoeste 0 -- -- 49
2019-02-07 01:00:00 3.8 17 Sudoeste 39 Sudoeste 0 -- -- 75
2019-02-07 00:00:00 4 21 Sudoeste 34 Sudoeste 0 -- -- 73
2019-02-06 23:00:00 4.2 23 Sudoeste 36 Sudoeste 0 -- -- 72
2019-02-06 22:00:00 4 23 Sudoeste 36 Sudoeste 0 -- -- 77
2019-02-06 21:00:00 4.5 22 Sudoeste 35 Sur 0 -- -- 65
2019-02-06 20:00:00 5.7 12 Sur 31 Sur 0 -- -- 51
2019-02-06 19:00:00 5.5 8 Sudoeste 24 Sudoeste 0 -- -- 55
2019-02-06 18:00:00 5.4 7 Sudeste 19 Sur 0 -- -- 57
2019-02-06 17:00:00 4.6 6 Sur 17 Sur 0 -- -- 64
2019-02-06 16:00:00 8.2 5 Sudoeste 27 Sur 0 -- -- 48
2019-02-06 15:00:00 9.2 10 Sudeste 28 Sur 0 -- -- 43
2019-02-06 14:00:00 9.6 3 Sudeste 17 Sur 0 -- -- 46
2019-02-06 13:00:00 10 4 Sur 20 Sur 0 -- -- 46
2019-02-06 12:00:00 8 8 Sur 16 Sur 0 -- -- 55
2019-02-06 11:00:00 3.8 10 Sudeste 19 Sudeste 0 -- -- 67
2019-02-06 10:00:00 3.5 14 Sudeste 20 Sudeste 0 -- -- 70
2019-02-06 09:00:00 2 9 Sudeste 16 Sudeste 0 -- -- 76
2019-02-06 08:00:00 3.2 10 Sudeste 17 Sudeste 0 -- -- 70
2019-02-06 07:00:00 3.4 12 Este 20 Sudeste 0 -- -- 67
2019-02-06 06:00:00 2.7 12 Sudeste 19 Sudeste 0 -- -- 72
2019-02-06 05:00:00 3.1 13 Sudeste 20 Sudeste 0 -- -- 70
2019-02-06 04:00:00 1.5 4 Sur 18 Sudeste 0 -- -- 74
2019-02-06 03:00:00 2 10 Sudeste 17 Sudeste 0 -- -- 67
2019-02-06 02:00:00 1.3 5 Sudoeste 10 Sudoeste 0 -- -- 68
2019-02-06 01:00:00 1.6 4 Sudoeste 17 Sudeste 0 -- -- 65
2019-02-06 00:00:00 1.7 11 Sur 15 Sur 0 -- -- 66
2019-02-05 23:00:00 0.7 5 Sudeste 14 Sudeste 0 -- -- 79
2019-02-05 22:00:00 3.2 5 Este 14 Sudeste 0 -- -- 70
2019-02-05 21:00:00 0.2 5 Sudeste 12 Sur 0 -- -- 87
2019-02-05 20:00:00 0.3 3 Sudeste 11 Sur 0 -- -- 93
2019-02-05 19:00:00 0.7 6 Sudeste 13 Sur 0 -- -- 95
2019-02-05 18:00:00 1.3 10 Sur 14 Sur 0 -- -- 93
2019-02-05 17:00:00 1.8 6 Sudeste 15 Sur 0 -- -- 90
2019-02-05 16:00:00 3.4 10 Sur 13 Sur 0 -- -- 79
2019-02-05 15:00:00 4.1 7 Sur 13 Sur 0 -- -- 79
2019-02-05 14:00:00 4.4 5 Sur 10 Sudeste 0 -- -- 78
2019-02-05 13:00:00 4.8 7 Sudeste 11 Sudeste 0 -- -- 73
2019-02-05 12:00:00 6.5 3 Sudoeste 13 Oeste 0 -- -- 69
2019-02-05 11:00:00 1.7 5 Sur 13 Sur 0 -- -- 85
2019-02-05 10:00:00 1.7 4 Sudoeste 10 Sur 0 -- -- 85
2019-02-05 09:00:00 1.1 3 Sur 10 Sur 0 -- -- 94
2019-02-05 08:00:00 0.8 2 Este 8 Este 0 -- -- 91
2019-02-05 07:00:00 0.8 4 Nordeste 8 Noroeste 0 -- -- 89
2019-02-05 06:00:00 2 3 Norte 7 Noroeste 0 -- -- 90
2019-02-05 05:00:00 2.2 3 Oeste 8 Oeste 0 -- -- 92
2019-02-05 04:00:00 1.8 3 Sudoeste 5 Oeste 0 -- -- 90
2019-02-05 03:00:00 1.9 2 Sudeste 11 Oeste 0 -- -- 91
2019-02-05 02:00:00 1.8 0 Calma 5 Este 0 -- -- 95
2019-02-05 01:00:00 2.2 4 Sur 7 Sur 0 -- -- 94
2019-02-05 00:00:00 1.9 6 Sudeste 8 Sudeste 0 -- -- 97
2019-02-04 23:00:00 2 3 Oeste 14 Norte 0 -- -- 92
2019-02-04 22:00:00 1.9 4 Sudeste 10 Noroeste 0 -- -- 93
2019-02-04 21:00:00 2 4 Sur 12 Este 0 -- -- 91
2019-02-04 20:00:00 1.8 5 Sudoeste 13 Sur 0 -- -- 87
2019-02-04 19:00:00 1.4 10 Sudeste 15 Sudeste 0 -- -- 84
2019-02-04 18:00:00 0.7 9 Este 13 Este 0 -- -- 78
2019-02-04 17:00:00 0.6 10 Sur 13 Sur 0 -- -- 85
2019-02-04 16:00:00 2.4 4 Sudeste 9 Sudeste 0 -- -- 85
2019-02-04 15:00:00 2.3 5 Sudeste 9 Sudeste 0 -- -- 86
2019-02-04 14:00:00 2 5 Sur 9 Sudeste 0 -- -- 88
2019-02-04 13:00:00 0.7 4 Sudeste 8 Este 1 -- -- 93
2019-02-04 12:00:00 -0.9 5 Sudeste 8 Sudeste 0 -- -- 89
2019-02-04 11:00:00 -1.7 2 Sur 6 Sudeste 0 -- -- 94
2019-02-04 10:00:00 -2 3 Sudoeste 5 Sudoeste 0 -- -- 96
2019-02-04 09:00:00 -3.5 3 Sudeste 5 Sur 0 -- -- 95
2019-02-04 08:00:00 -4.3 3 Sudeste 6 Sur 0 -- -- 96
2019-02-04 07:00:00 -4.6 2 Sudoeste 6 Este 0 -- -- 97
2019-02-04 06:00:00 -5.7 3 Sudeste 5 Sudeste 0 -- -- 96
2019-02-04 05:00:00 -7.4 0 Calma 4 Sudeste 0 -- -- 95
2019-02-04 04:00:00 -6.8 0 Calma 4 Sur 0 -- -- 95
2019-02-04 03:00:00 -6.5 0 Calma 4 Sur 0.2 -- -- 97
2019-02-04 02:00:00 -7.2 0 Calma 4 Este 0 -- -- 96
2019-02-04 01:00:00 -6.7 0 Calma 4 Sur 0.2 -- -- 95
2019-02-04 00:00:00 -6.4 2 Sur 4 Este 0 -- -- 98
2019-02-03 23:00:00 -5.6 0 Calma 3 Este 0 -- -- 98
2019-02-03 22:00:00 -5.1 0 Calma 6 Noroeste 0 -- -- 98
2019-02-03 21:00:00 -5 3 Noroeste 5 Noroeste 0 -- -- 98
2019-02-03 20:00:00 -5.2 3 Noroeste 5 Oeste 0.2 -- -- 98
2019-02-03 19:00:00 -5.3 2 Norte 5 Noroeste 0.2 -- -- 98
2019-02-03 18:00:00 -5.3 3 Noroeste 8 Noroeste 0 -- -- 97
2019-02-03 17:00:00 -4.5 4 Noroeste 10 Noroeste 0 -- -- 98
2019-02-03 16:00:00 -4.4 4 Noroeste 9 Noroeste 0 -- -- 98
2019-02-03 15:00:00 -4.5 4 Noroeste 13 Noroeste 0 -- -- 98
2019-02-03 14:00:00 -4.6 5 Noroeste 9 Noroeste 0.4 -- -- 97
2019-02-03 13:00:00 -4.9 5 Noroeste 13 Noroeste 0.2 -- -- 97
2019-02-03 12:00:00 -5.1 5 Noroeste 12 Noroeste 0.6 -- -- 97
2019-02-03 11:00:00 -5.7 5 Norte 11 Noroeste 0 -- -- 97
2019-02-03 10:00:00 -6 6 Noroeste 15 Noroeste 0 -- -- 97
2019-02-03 09:00:00 -6.3 6 Noroeste 14 Noroeste 0 -- -- 97
2019-02-03 08:00:00 -6.6 5 Noroeste 12 Noroeste 0.8 -- -- 97
2019-02-03 07:00:00 -6.6 6 Noroeste 10 Noroeste 0.2 -- -- 97
2019-02-03 06:00:00 -6.5 6 Noroeste 12 Noroeste 0 -- -- 97
2019-02-03 05:00:00 -6.2 6 Noroeste 14 Noroeste 0.8 -- -- 97
2019-02-03 04:00:00 -6.2 6 Noroeste 13 Noroeste 0.6 -- -- 97
2019-02-03 03:00:00 -6.3 7 Noroeste 15 Noroeste 0 -- -- 97
2019-02-03 02:00:00 -6 8 Noroeste 18 Noroeste 0.2 -- -- 97
2019-02-03 01:00:00 -5.8 6 Noroeste 24 Noroeste 1.4 -- -- 97
2019-02-03 00:00:00 -5.9 8 Noroeste 19 Noroeste 0.2 -- -- 97
2019-02-02 23:00:00 -5.8 10 Noroeste 26 Noroeste 0 -- -- 97
2019-02-02 22:00:00 -5.5 15 Noroeste 28 Noroeste 0.4 -- -- 97
2019-02-02 21:00:00 -5.4 12 Noroeste 26 Noroeste 0.4 -- -- 98
2019-02-02 20:00:00 -5.6 13 Noroeste 25 Noroeste 0 -- -- 97
2019-02-02 19:00:00 -5.8 13 Noroeste 26 Oeste 0 -- -- 97
2019-02-02 18:00:00 -6.2 11 Noroeste 33 Noroeste 0 -- -- 97
2019-02-02 17:00:00 -6.2 13 Noroeste 28 Noroeste 0.4 -- -- 97
2019-02-02 16:00:00 -6.1 15 Noroeste 30 Noroeste 0.2 -- -- 97
2019-02-02 15:00:00 -5.8 14 Noroeste 33 Noroeste 0.6 -- -- 97
2019-02-02 14:00:00 -5.6 14 Noroeste 32 Noroeste 0 -- -- 97
2019-02-02 13:00:00 -6 17 Noroeste 32 Noroeste 0 -- -- 96
2019-02-02 12:00:00 -5.7 20 Noroeste 36 Noroeste 0 -- -- 97
2019-02-02 11:00:00 -5.5 12 Noroeste 33 Noroeste 0.2 -- -- 97
2019-02-02 10:00:00 -5.2 17 Noroeste 44 Noroeste 0.2 -- -- 98
2019-02-02 09:00:00 -5.2 22 Noroeste 48 Oeste 0 -- -- 98
2019-02-02 08:00:00 -4.8 25 Noroeste 48 Noroeste 0 -- -- 97
2019-02-02 07:00:00 -4.3 19 Noroeste 47 Noroeste 0 -- -- 99
2019-02-02 06:00:00 -4.4 24 Noroeste 57 Oeste 0.2 -- -- 99
2019-02-02 05:00:00 -4.2 26 Noroeste 65 Norte 0.4 -- -- 99
2019-02-02 04:00:00 -4.1 27 Noroeste 56 Noroeste 0.2 -- -- 98
2019-02-02 03:00:00 -3.6 23 Noroeste 62 Noroeste 0.8 -- -- 99
2019-02-02 02:00:00 -3.5 16 Noroeste 51 Noroeste 0.4 -- -- 99
2019-02-02 01:00:00 -3.4 27 Noroeste 63 Noroeste 0 -- -- 99
2019-02-02 00:00:00 -3.4 25 Noroeste 40 Norte 0 -- -- 99
2019-02-01 23:00:00 -2.8 17 Noroeste 49 Noroeste 0 -- -- 87
2019-02-01 22:00:00 -3.4 14 Noroeste 33 Noroeste 0 -- -- 93
2019-02-01 21:00:00 -3.7 15 Norte 61 Norte 0 -- -- 94
2019-02-01 20:00:00 -3.3 22 Norte 75 Noroeste 0 -- -- 92
2019-02-01 19:00:00 -3.1 25 Norte 70 Noroeste 0 -- -- 87
2019-02-01 18:00:00 -2.6 43 Norte 92 Noroeste 0.4 -- -- 83
2019-02-01 17:00:00 -2.4 41 Norte 93 Noroeste 0.4 -- -- 86
2019-02-01 16:00:00 -2.1 20 Norte 101 Noroeste 0.6 -- -- 92
2019-02-01 15:00:00 -1.6 31 Este 129 Sudeste 2.4 -- -- 86
2019-02-01 14:00:00 -1.4 26 Este 89 Sur 1.8 -- -- 91
2019-02-01 13:00:00 -1.7 23 Sudeste 88 Sudeste 1.4 -- -- 91
2019-02-01 12:00:00 -1.6 29 Sudeste 84 Sudeste 1.6 -- -- 89
2019-02-01 11:00:00 -2.5 26 Este 93 Sudeste 0.8 -- -- 90
2019-02-01 10:00:00 -2.2 32 Este 89 Sur 0.4 -- -- 92
2019-02-01 09:00:00 -2.1 31 Norte 77 Noroeste 0.6 -- -- 86
2019-02-01 08:00:00 -1.4 23 Nordeste 67 Sur -- -- -- 95
2019-02-01 07:00:00 -1.3 23 Norte 65 Norte 0.2 -- -- 98
2019-02-01 06:00:00 -0.6 20 Nordeste 73 Sur 0.4 -- -- 94
2019-02-01 05:00:00 -0.3 24 Norte 79 Oeste 0 -- -- 90
2019-02-01 04:00:00 -0.1 28 Este 69 Sudeste 0 -- -- 90
2019-02-01 03:00:00 0.8 22 Sudeste 83 Noroeste 0 -- -- 94
2019-02-01 02:00:00 1 24 Norte 87 Norte 0.2 -- -- 96
2019-02-01 01:00:00 0.1 41 Norte 83 Norte 0.8 -- -- 99
2019-02-01 00:00:00 2.5 42 Norte 82 Norte 1.6 -- -- 94
2019-01-31 23:00:00 3.3 19 Nordeste 77 Norte 2.8 -- -- 95
2019-01-31 22:00:00 4.1 26 Nordeste 73 Sudeste 2.2 -- -- 92
2019-01-31 21:00:00 4.2 31 Norte 87 Norte 1.4 -- -- 96
2019-01-31 20:00:00 4.2 26 Norte 78 Norte 1.4 -- -- 98
2019-01-31 19:00:00 4.3 30 Norte 102 Norte 2.2 -- -- 100
2019-01-31 18:00:00 4.4 27 Norte 83 Sur 2 -- -- 97
2019-01-31 17:00:00 4.4 21 Norte 80 Norte 2.2 -- -- 98
2019-01-31 16:00:00 4.7 19 Nordeste 88 Norte 1 -- -- 98
2019-01-31 15:00:00 4.7 32 Norte 83 Norte 0.4 -- -- 96
2019-01-31 14:00:00 4.5 22 Norte 77 Noroeste 0.4 -- -- 96
2019-01-31 13:00:00 3.9 21 Norte 73 Sur 0 -- -- 98
2019-01-31 12:00:00 3.4 21 Norte 69 Sudeste 0.2 -- -- 95
2019-01-31 11:00:00 3 27 Norte 69 Norte 0 -- -- 95
2019-01-31 10:00:00 3.2 25 Este 82 Norte 0 -- -- 94
2019-01-31 09:00:00 3.6 30 Norte 83 Noroeste 0.2 -- -- 95
2019-01-31 08:00:00 3.5 35 Norte 75 Norte 0.2 -- -- 95
2019-01-31 07:00:00 3.6 39 Norte 80 Norte 0.2 -- -- 95
2019-01-31 06:00:00 3.7 29 Norte 76 Norte 0 -- -- 93
2019-01-31 05:00:00 3.5 26 Norte 71 Norte 0 -- -- 95
2019-01-31 04:00:00 3.1 25 Nordeste 73 Noroeste 0 -- -- 97
2019-01-31 03:00:00 2.8 35 Norte 72 Norte 0 -- -- 99
2019-01-31 02:00:00 1.8 24 Norte 57 Norte 0.2 -- -- 100
2019-01-31 01:00:00 0.6 15 Norte 49 Norte 0.4 -- -- 100
2019-01-31 00:00:00 0.2 20 Norte 80 Norte 0 -- -- 100
2019-01-30 23:00:00 0.6 36 Norte 102 Noroeste 0.2 -- -- 98
2019-01-30 22:00:00 0.3 18 Nordeste 68 Norte 0.2 -- -- 91
2019-01-30 21:00:00 0.1 26 Norte 61 Noroeste 0 -- -- 90
2019-01-30 20:00:00 0.1 24 Nordeste 52 Sur 0 -- -- 88
2019-01-30 19:00:00 0.1 13 Noroeste 45 Noroeste 0 -- -- 83
2019-01-30 18:00:00 -0.8 13 Noroeste 40 Sur 0 -- -- 86
2019-01-30 17:00:00 -0.7 12 Sudoeste 39 Sudoeste 0 -- -- 75
2019-01-30 16:00:00 -1 15 Oeste 40 Sur 0 -- -- 67
2019-01-30 15:00:00 -0.9 12 Oeste 42 Sudoeste 0 -- -- 63
2019-01-30 14:00:00 -1.4 12 Oeste 35 Noroeste 0 -- -- 60
2019-01-30 13:00:00 -2 13 Norte 44 Noroeste 0 -- -- 69
2019-01-30 12:00:00 -1.3 8 Oeste 26 Noroeste 0 -- -- 65
2019-01-30 11:00:00 -3.3 12 Oeste 27 Sudoeste 0 -- -- 76
2019-01-30 10:00:00 -3.9 9 Noroeste 20 Oeste 0 -- -- 86
2019-01-30 09:00:00 -3.9 6 Noroeste 24 Oeste 0 -- -- 91
2019-01-30 08:00:00 -2.8 13 Noroeste 28 Oeste 0 -- -- 86
2019-01-30 07:00:00 -3.3 11 Oeste 28 Oeste 0 -- -- 90
2019-01-30 06:00:00 -3.5 12 Oeste 28 Noroeste 0 -- -- 91
2019-01-30 05:00:00 -3.3 10 Oeste 22 Noroeste 0 -- -- 92
2019-01-30 04:00:00 -3.7 7 Oeste 23 Noroeste 0 -- -- 96
2019-01-30 03:00:00 -3.4 11 Noroeste 20 Noroeste 0.2 -- -- 98
2019-01-30 02:00:00 -3.6 9 Noroeste 22 Noroeste 0 -- -- 100
2019-01-30 01:00:00 -3.9 7 Noroeste 39 Noroeste 0 -- -- 98
2019-01-30 00:00:00 -4.1 16 Noroeste 36 Noroeste 0 -- -- 98
2019-01-29 23:00:00 -3 17 Noroeste 35 Noroeste 0 -- -- 100
2019-01-29 22:00:00 -2.5 19 Noroeste 40 Norte 0 -- -- 100
2019-01-29 21:00:00 -1.7 24 Noroeste 49 Norte 0 -- -- 95
2019-01-29 20:00:00 -0.9 17 Noroeste 39 Norte 0 -- -- 98
2019-01-29 19:00:00 -0.6 25 Noroeste 53 Norte 0.2 -- -- 100
2019-01-29 18:00:00 0.4 21 Noroeste 71 Noroeste 0 -- -- 98
2019-01-29 17:00:00 1.4 34 Noroeste 64 Oeste 0 -- -- 90
2019-01-29 16:00:00 1.6 27 Noroeste 92 Noroeste 0 -- -- 98
2019-01-29 15:00:00 0.4 26 Noroeste 80 Noroeste 0 -- -- 100
2019-01-29 14:00:00 0.5 38 Norte 79 Norte 0 -- -- 98
2019-01-29 13:00:00 -0.8 24 Noroeste 87 Noroeste 0 -- -- 100
2019-01-29 12:00:00 -0.8 22 Norte 77 Noroeste 0 -- -- 97
2019-01-29 11:00:00 -0.1 25 Norte 64 Norte 0 -- -- 97
2019-01-29 10:00:00 -1 12 Noroeste 55 Norte 0 -- -- 100
2019-01-29 09:00:00 -0.7 8 Este 28 Sudoeste 0 -- -- 98
2019-01-29 08:00:00 -1.4 18 Sudoeste 34 Sudoeste 0 -- -- 93
2019-01-29 07:00:00 -1.8 13 Oeste 31 Oeste 0 -- -- 89
2019-01-29 06:00:00 -2.1 14 Sudoeste 30 Oeste 0 -- -- 90
2019-01-29 05:00:00 -3.6 0 Calma 19 Noroeste 0 -- -- 99
2019-01-29 04:00:00 -2.6 12 Noroeste 28 Noroeste 0 -- -- 98
2019-01-29 03:00:00 -2.7 12 Noroeste 32 Noroeste 0 -- -- 99
2019-01-29 02:00:00 -2.6 13 Noroeste 35 Oeste 0 -- -- 100
2019-01-29 01:00:00 -2.4 21 Noroeste 42 Noroeste 0 -- -- 100
2019-01-29 00:00:00 -2.4 20 Noroeste 36 Noroeste 0 -- -- 100
2019-01-28 23:00:00 -2.1 17 Noroeste 42 Noroeste 0 -- -- 100
2019-01-28 22:00:00 -1.9 22 Noroeste 41 Noroeste 0 -- -- 100
2019-01-28 21:00:00 -2 19 Noroeste 41 Noroeste 0 -- -- 100
2019-01-28 20:00:00 -1.9 19 Noroeste 51 Noroeste 0 -- -- 100
2019-01-28 19:00:00 -1.8 26 Noroeste 50 Noroeste 0 -- -- 100
2019-01-28 18:00:00 -1.2 23 Noroeste 43 Noroeste 0 -- -- 100
2019-01-28 17:00:00 -1 21 Noroeste 51 Noroeste 0.2 -- -- 100
2019-01-28 16:00:00 -1.1 29 Noroeste 51 Noroeste 0 -- -- 100
2019-01-28 15:00:00 -0.9 30 Noroeste 53 Norte 0 -- -- 100
2019-01-28 14:00:00 -1.1 26 Noroeste 54 Noroeste 0 -- -- 100
2019-01-28 13:00:00 -1.1 27 Noroeste 57 Noroeste 0 -- -- 100
2019-01-28 12:00:00 -0.9 26 Noroeste 64 Norte 0 -- -- 99
2019-01-28 11:00:00 -0.3 27 Noroeste 72 Noroeste 0 -- -- 91
2019-01-28 10:00:00 0.7 40 Noroeste 90 Noroeste 0 -- -- 78
2019-01-28 09:00:00 0.5 30 Noroeste 54 Noroeste 0 -- -- 77
2019-01-28 08:00:00 -1.1 14 Oeste 45 Noroeste 0 -- -- 87
2019-01-28 07:00:00 -0.6 13 Noroeste 33 Oeste 0 -- -- 84
2019-01-28 06:00:00 -0.8 18 Noroeste 42 Noroeste 0 -- -- 83
2019-01-28 05:00:00 -0.5 26 Noroeste 73 Norte 0 -- -- 82
2019-01-28 04:00:00 -0.8 21 Noroeste 58 Norte 0 -- -- 81
2019-01-28 03:00:00 -1.1 19 Noroeste 45 Noroeste 0 -- -- 84
2019-01-28 02:00:00 -2.2 17 Noroeste 36 Norte 0 -- -- 87
2019-01-28 01:00:00 -3.2 12 Noroeste 26 Noroeste 0 -- -- 99
2019-01-28 00:00:00 -3.1 15 Noroeste 35 Noroeste 0 -- -- 99
2019-01-27 23:00:00 -3.1 21 Noroeste 36 Noroeste 0 -- -- 100
2019-01-27 22:00:00 -3.1 22 Noroeste 41 Noroeste 0 -- -- 99
2019-01-27 21:00:00 -3.1 21 Noroeste 48 Noroeste 0 -- -- 97
2019-01-27 20:00:00 -2.8 25 Noroeste 44 Noroeste 0 -- -- 95
2019-01-27 19:00:00 -3.1 17 Noroeste 41 Noroeste 0 -- -- 97
2019-01-27 18:00:00 -2.9 22 Noroeste 50 Noroeste 0 -- -- 97
2019-01-27 17:00:00 -2.6 24 Noroeste 58 Noroeste 0 -- -- 99
2019-01-27 16:00:00 -2.8 31 Noroeste 55 Noroeste 0 -- -- 99
2019-01-27 15:00:00 -2.1 31 Noroeste 63 Norte 0.2 -- -- 97
2019-01-27 14:00:00 -2.5 29 Noroeste 59 Noroeste 0 -- -- 99
2019-01-27 13:00:00 -2 31 Noroeste 58 Noroeste 0 -- -- 99
2019-01-27 12:00:00 -1.9 24 Noroeste 42 Noroeste 0 -- -- 99
2019-01-27 11:00:00 -2.2 17 Noroeste 30 Noroeste 0 -- -- 100
2019-01-27 10:00:00 -1.7 11 Noroeste 24 Noroeste 0 -- -- 100
2019-01-27 09:00:00 -1.7 13 Noroeste 37 Noroeste 0 -- -- 100
2019-01-27 08:00:00 -0.9 15 Noroeste 37 Noroeste 0 -- -- 100
2019-01-27 07:00:00 -0.4 16 Noroeste 37 Noroeste 0 -- -- 100
2019-01-27 06:00:00 0.3 15 Noroeste 41 Norte 0 -- -- 96
2019-01-27 05:00:00 1.7 18 Norte 39 Norte 0 -- -- 71
2019-01-27 04:00:00 2.9 14 Noroeste 75 Norte 0 -- -- 52
2019-01-27 03:00:00 4.1 23 Norte 50 Norte 0 -- -- 37
2019-01-27 02:00:00 3.8 23 Norte 60 Norte 0 -- -- 50
2019-01-27 01:00:00 4.2 18 Norte 44 Norte 0 -- -- 51
2019-01-27 00:00:00 4.4 10 Noroeste 32 Sur 0 -- -- 45
2019-01-26 23:00:00 5.6 12 Oeste 33 Norte 0 -- -- 29
2019-01-26 22:00:00 5.6 8 Sudoeste 20 Noroeste 0 -- -- 29
2019-01-26 21:00:00 7.1 9 Oeste 27 Oeste 0 -- -- 20
2019-01-26 20:00:00 7.7 13 Oeste 31 Oeste 0 -- -- 23
2019-01-26 19:00:00 7 11 Sudoeste 22 Oeste 0 -- -- 31
2019-01-26 18:00:00 7.1 11 Sudoeste 21 Sudoeste 0 -- -- 36
2019-01-26 17:00:00 6.9 15 Sudoeste 23 Sudoeste 0 -- -- 37
2019-01-26 16:00:00 6.6 11 Sudoeste 19 Sudoeste 0 -- -- 39
2019-01-26 15:00:00 8.9 6 Sudoeste 15 Sudoeste 0 -- -- 36
2019-01-26 14:00:00 11.3 5 Oeste 14 Oeste 0 -- -- 24
2019-01-26 13:00:00 10 6 Sudoeste 12 Sudoeste 0 -- -- 20
2019-01-26 12:00:00 7.4 5 Sudoeste 16 Sudeste 0 -- -- 28
2019-01-26 11:00:00 2.5 6 Sur 17 Sudeste 0 -- -- 44
2019-01-26 10:00:00 1.5 5 Sudoeste 18 Sudeste 0 -- -- 52
2019-01-26 09:00:00 2.8 12 Sudeste 21 Sudeste 0 -- -- 41
2019-01-26 08:00:00 2 9 Sur 18 Sudeste 0 -- -- 42
2019-01-26 07:00:00 2 6 Sur 14 Sudeste 0 -- -- 43
2019-01-26 06:00:00 2 4 Sudoeste 17 Sudeste 0 -- -- 45
2019-01-26 05:00:00 1.1 10 Sur 18 Sudeste 0 -- -- 87
2019-01-26 04:00:00 -2.5 4 Sudeste 9 Noroeste 0 -- -- 100
2019-01-26 03:00:00 -1.8 4 Sudeste 13 Este 0 -- -- 100
2019-01-26 02:00:00 -1 6 Sudeste 12 Sur 0 -- -- 100
2019-01-26 01:00:00 -0.4 6 Sudoeste 11 Sudoeste 0 -- -- 100
2019-01-26 00:00:00 -0.4 0 Calma 10 Sudeste 0 -- -- 100
2019-01-25 23:00:00 -0.3 7 Noroeste 14 Noroeste 0 -- -- 100
2019-01-25 22:00:00 -0.2 6 Noroeste 16 Noroeste 0 -- -- 100
2019-01-25 21:00:00 -0.2 4 Sur 18 Noroeste 0.2 -- -- 100
2019-01-25 20:00:00 0.1 6 Noroeste 22 Norte 0 -- -- 100
2019-01-25 19:00:00 0 12 Noroeste 26 Noroeste 0 -- -- 100
2019-01-25 18:00:00 0.2 17 Noroeste 27 Noroeste 0 -- -- 100
2019-01-25 17:00:00 0.5 12 Noroeste 28 Noroeste 0 -- -- 100
2019-01-25 16:00:00 0.9 11 Noroeste 26 Noroeste 0 -- -- 100
2019-01-25 15:00:00 0.8 9 Norte 35 Noroeste 0 -- -- 100
2019-01-25 14:00:00 0.9 15 Noroeste 29 Oeste 0 -- -- 100
2019-01-25 13:00:00 0.9 12 Noroeste 35 Norte 0 -- -- 100
2019-01-25 12:00:00 0.8 15 Noroeste 36 Norte 0 -- -- 100
2019-01-25 11:00:00 0.9 14 Noroeste 32 Noroeste 0 -- -- 100
2019-01-25 10:00:00 1.1 18 Noroeste 33 Norte 0 -- -- 100
2019-01-25 09:00:00 1 12 Noroeste 26 Noroeste 0.4 -- -- 100
2019-01-25 08:00:00 0.9 11 Noroeste 33 Noroeste 0.6 -- -- 100
2019-01-25 07:00:00 0.8 14 Noroeste 31 Noroeste 0.6 -- -- 100
2019-01-25 06:00:00 0.7 19 Noroeste 44 Noroeste 0.2 -- -- 100
2019-01-25 05:00:00 0.9 19 Noroeste 34 Oeste 0.4 -- -- 100
2019-01-25 04:00:00 1 19 Noroeste 43 Noroeste 0.4 -- -- 100
2019-01-25 03:00:00 1.1 18 Noroeste 38 Noroeste 0 -- -- 100
2019-01-25 02:00:00 1.2 19 Noroeste 39 Noroeste 0.8 -- -- 100
2019-01-25 01:00:00 1 12 Noroeste 22 Noroeste 0.8 -- -- 100
2019-01-25 00:00:00 0.9 9 Noroeste 26 Norte 0.2 -- -- 100
2019-01-24 23:00:00 0.9 15 Norte 26 Noroeste 0.6 -- -- 100
2019-01-24 22:00:00 0.8 10 Noroeste 23 Norte 0.8 -- -- 100
2019-01-24 21:00:00 0.7 12 Norte 22 Norte 1.4 -- -- 100
2019-01-24 20:00:00 0.3 2 Noroeste 4 Noroeste 1 -- -- 100
2019-01-24 19:00:00 0.3 3 Noroeste 4 Noroeste 0.8 -- -- 100
2019-01-24 18:00:00 0.2 3 Noroeste 5 Norte 0.6 -- -- 100
2019-01-24 17:00:00 0.1 3 Norte 5 Norte 0.8 -- -- 100
2019-01-24 16:00:00 0 3 Norte 5 Norte 0.2 -- -- 100
2019-01-24 15:00:00 0 3 Norte 5 Norte 0.4 -- -- 100
2019-01-24 14:00:00 -0.2 3 Norte 4 Norte 1.4 -- -- 100
2019-01-24 13:00:00 -0.3 3 Norte 5 Norte 2 -- -- 100
2019-01-24 12:00:00 -0.5 3 Norte 4 Norte 2 -- -- 100
2019-01-24 11:00:00 -1 2 Norte 4 Norte 2.2 -- -- 100
2019-01-24 10:00:00 -1.1 3 Norte 5 Norte 2.2 -- -- 100
2019-01-24 09:00:00 -0.7 3 Norte 6 Norte 1.2 -- -- 100
2019-01-24 08:00:00 -0.6 5 Norte 10 Noroeste 1 -- -- 100
2019-01-24 07:00:00 -0.5 6 Noroeste 12 Noroeste 0.8 -- -- 100
2019-01-24 06:00:00 -0.4 8 Noroeste 15 Noroeste 0.6 -- -- 100
2019-01-24 05:00:00 -0.8 9 Noroeste 17 Noroeste 1.2 -- -- 100
2019-01-24 04:00:00 -0.8 10 Noroeste 15 Noroeste 1.4 -- -- 100
2019-01-24 03:00:00 -0.6 9 Noroeste 15 Noroeste 1.4 -- -- 100
2019-01-24 02:00:00 -0.5 9 Noroeste 23 Noroeste 0.6 -- -- 100
2019-01-24 01:00:00 -0.8 10 Noroeste 26 Noroeste 1.2 -- -- 100
2019-01-24 00:00:00 -0.8 14 Noroeste 33 Noroeste 1.2 -- -- 100
2019-01-23 23:00:00 -0.5 22 Noroeste 48 Noroeste 0.8 -- -- 100
2019-01-23 22:00:00 -0.2 23 Noroeste 51 Oeste 0.6 -- -- 100
2019-01-23 21:00:00 0 25 Noroeste 57 Noroeste 0.6 -- -- 100
2019-01-23 20:00:00 0.2 29 Noroeste 60 Noroeste 0.4 -- -- 100
2019-01-23 19:00:00 0.3 32 Noroeste 62 Noroeste 1 -- -- 100
2019-01-23 18:00:00 0.1 29 Noroeste 63 Noroeste 1 -- -- 100
2019-01-23 17:00:00 0 26 Noroeste 62 Noroeste 1.2 -- -- 100
2019-01-23 16:00:00 0 24 Noroeste 62 Noroeste 1.4 -- -- 100
2019-01-23 15:00:00 0 33 Noroeste 56 Noroeste 0.4 -- -- 100
2019-01-23 14:00:00 0 7 Noroeste 12 Noroeste 1 -- -- 100
2019-01-23 13:00:00 0 7 Noroeste 12 Noroeste 0.4 -- -- 100
2019-01-23 12:00:00 -0.1 6 Noroeste 13 Noroeste 0.2 -- -- 100
2019-01-23 11:00:00 -0.1 4 Noroeste 9 Oeste 0.4 -- -- 100
2019-01-23 10:00:00 -0.1 4 Noroeste 9 Noroeste 0.4 -- -- 100
2019-01-23 09:00:00 -0.3 4 Noroeste 8 Noroeste 0 -- -- 100
2019-01-23 08:00:00 -0.2 4 Noroeste 9 Noroeste 0 -- -- 100
2019-01-23 07:00:00 -0.1 5 Noroeste 9 Norte 0 -- -- 100
2019-01-23 06:00:00 -0.5 5 Noroeste 12 Noroeste 0 -- -- 100
2019-01-23 05:00:00 -1.1 3 Noroeste 7 Noroeste 0 -- -- 100
2019-01-23 04:00:00 -1.4 4 Noroeste 8 Noroeste 0 -- -- 100
2019-01-23 03:00:00 -1.8 3 Noroeste 6 Noroeste 0.4 -- -- 100
2019-01-23 02:00:00 -1.8 2 Noroeste 6 Noroeste 0.2 -- -- 100
2019-01-23 01:00:00 -1.9 3 Noroeste 6 Noroeste 0.4 -- -- 100
2019-01-23 00:00:00 -2.1 3 Noroeste 6 Noroeste 0.4 -- -- 100
2019-01-22 23:00:00 -2.1 3 Noroeste 6 Noroeste 0.4 -- -- 100
2019-01-22 22:00:00 -2.3 3 Noroeste 7 Noroeste 0.2 -- -- 100
2019-01-22 21:00:00 -2.5 3 Noroeste 5 Noroeste 0 -- -- 100
2019-01-22 20:00:00 -2.7 3 Noroeste 5 Noroeste 0.2 -- -- 100
2019-01-22 19:00:00 -3 2 Noroeste 5 Noroeste 0.4 -- -- 100
2019-01-22 18:00:00 -3.2 4 Noroeste 9 Noroeste 0.2 -- -- 100
2019-01-22 17:00:00 -3.1 4 Noroeste 9 Noroeste 0.2 -- -- 100
2019-01-22 16:00:00 -2.7 3 Noroeste 8 Noroeste 0 -- -- 100
2019-01-22 15:00:00 -2.5 4 Noroeste 8 Noroeste 0.2 -- -- 100
2019-01-22 14:00:00 -2.8 3 Noroeste 6 Noroeste 0.8 -- -- 100
2019-01-22 13:00:00 -1.6 3 Noroeste 8 Oeste 0.4 -- -- 100
2019-01-22 12:00:00 -2 3 Oeste 6 Noroeste 0.2 -- -- 100
2019-01-22 11:00:00 -2.5 3 Noroeste 6 Noroeste 0 -- -- 100
2019-01-22 10:00:00 -2.5 2 Noroeste 5 Noroeste 0.2 -- -- 100
2019-01-22 09:00:00 -3 0 Calma 5 Noroeste 0 -- -- 100
2019-01-22 08:00:00 -3.6 3 Noroeste 5 Noroeste 0 -- -- 99
2019-01-22 07:00:00 -3.5 0 Calma 4 Oeste 0.2 -- -- 99
2019-01-22 06:00:00 -3.8 0 Calma 5 Noroeste 0.4 -- -- 99
2019-01-22 05:00:00 -4 3 Noroeste 5 Noroeste 0.2 -- -- 99
2019-01-22 04:00:00 -4.1 3 Noroeste 5 Noroeste 0.6 -- -- 99
2019-01-22 03:00:00 -4.3 2 Noroeste 5 Noroeste 0.8 -- -- 98
2019-01-22 02:00:00 -4.3 3 Noroeste 5 Noroeste 0.6 -- -- 99
2019-01-22 01:00:00 -3.9 2 Noroeste 4 Noroeste 0.4 -- -- 99
2019-01-22 00:00:00 -4.1 2 Noroeste 4 Noroeste 0.2 -- -- 99
2019-01-21 23:00:00 -4.4 3 Noroeste 6 Noroeste 0 -- -- 98
2019-01-21 22:00:00 -4.1 3 Noroeste 6 Noroeste 0 -- -- 99
2019-01-21 21:00:00 -3.9 3 Noroeste 6 Noroeste 0 -- -- 99
2019-01-21 20:00:00 -4.1 2 Norte 4 Noroeste 0 -- -- 99
2019-01-21 19:00:00 -3.8 3 Noroeste 6 Noroeste 0 -- -- 99
2019-01-21 18:00:00 -3.9 3 Noroeste 5 Noroeste 0 -- -- 99
2019-01-21 17:00:00 -3.9 3 Noroeste 6 Noroeste 0 -- -- 99
2019-01-21 16:00:00 -3.7 3 Noroeste 6 Noroeste 0 -- -- 99
2019-01-21 15:00:00 -3.5 3 Noroeste 6 Noroeste 0 -- -- 99
2019-01-21 14:00:00 -3.5 3 Noroeste 9 Noroeste 0 -- -- 99
2019-01-21 13:00:00 -3.6 2 Noroeste 8 Oeste 0 -- -- 99
2019-01-21 12:00:00 -3.4 4 Noroeste 8 Noroeste 1 -- -- 99
2019-01-21 11:00:00 -3.6 3 Norte 8 Noroeste 1 -- -- 99
2019-01-21 10:00:00 -3.6 3 Norte 6 Noroeste 0.4 -- -- 99
2019-01-21 09:00:00 -3.3 3 Noroeste 5 Noroeste 0.2 -- -- 99
2019-01-21 08:00:00 -3.2 3 Norte 11 Noroeste 1 -- -- 99
2019-01-21 07:00:00 -3.3 4 Noroeste 8 Noroeste 0.2 -- -- 99
2019-01-21 06:00:00 -3.2 3 Noroeste 6 Noroeste 0.2 -- -- 99
2019-01-21 05:00:00 -3.2 3 Noroeste 11 Oeste 0.2 -- -- 99
2019-01-21 04:00:00 -2.9 4 Noroeste 6 Noroeste 1 -- -- 100
2019-01-21 03:00:00 -3 3 Noroeste 8 Noroeste 0.2 -- -- 100
2019-01-21 02:00:00 -2.9 5 Noroeste 8 Noroeste 0.8 -- -- 100
2019-01-21 01:00:00 -2.8 4 Noroeste 10 Noroeste 0 -- -- 100
2019-01-21 00:00:00 -2.5 4 Norte 10 Oeste 0.6 -- -- 100
2019-01-20 23:00:00 -2.2 4 Noroeste 8 Noroeste 1.2 -- -- 100
2019-01-20 22:00:00 -2.2 5 Noroeste 9 Noroeste 1 -- -- 100
2019-01-20 21:00:00 -2.2 5 Noroeste 9 Noroeste 0.8 -- -- 100
2019-01-20 20:00:00 -2.2 4 Noroeste 14 Noroeste 0.4 -- -- 100
2019-01-20 19:00:00 -2.3 6 Noroeste 14 Noroeste 0.2 -- -- 100
2019-01-20 18:00:00 -2.1 7 Noroeste 15 Noroeste 0.4 -- -- 100
2019-01-20 17:00:00 -1.9 6 Noroeste 11 Noroeste 0.2 -- -- 100
2019-01-20 16:00:00 -1.6 5 Noroeste 13 Noroeste 0.8 -- -- 100
2019-01-20 15:00:00 -1.4 7 Noroeste 12 Noroeste 0.6 -- -- 100
2019-01-20 14:00:00 -1.6 6 Noroeste 15 Noroeste 0.8 -- -- 100
2019-01-20 13:00:00 -1.7 9 Noroeste 17 Noroeste 0.2 -- -- 100
2019-01-20 12:00:00 -1.9 7 Noroeste 14 Noroeste 0 -- -- 100
2019-01-20 11:00:00 -2.2 8 Noroeste 14 Noroeste 1.4 -- -- 100
2019-01-20 10:00:00 -2.4 8 Noroeste 16 Noroeste 0.2 -- -- 100
2019-01-20 09:00:00 -2.5 9 Noroeste 22 Noroeste 0 -- -- 100
2019-01-20 08:00:00 -2.2 11 Noroeste 19 Noroeste 0.8 -- -- 100
2019-01-20 07:00:00 -1.8 4 Norte 17 Noroeste 0 -- -- 100
2019-01-20 06:00:00 -2 5 Noroeste 12 Oeste 0 -- -- 100
2019-01-20 05:00:00 -2 6 Noroeste 10 Norte 0.6 -- -- 100
2019-01-20 04:00:00 -2 4 Noroeste 8 Oeste 0.8 -- -- 100
2019-01-20 03:00:00 -1.7 5 Noroeste 10 Norte 1 -- -- 100
2019-01-20 02:00:00 -0.8 5 Norte 9 Noroeste 1.2 -- -- 100
2019-01-20 01:00:00 -0.7 3 Noroeste 6 Noroeste 0.6 -- -- 100
2019-01-20 00:00:00 0.2 3 Oeste 16 Oeste 0.8 -- -- 100
2019-01-19 23:00:00 0 5 Oeste 23 Norte 0.6 -- -- 100
2019-01-19 22:00:00 -0.1 7 Noroeste 27 Norte 1.2 -- -- 100
2019-01-19 21:00:00 0 7 Noroeste 40 Norte 1.2 -- -- 100
2019-01-19 20:00:00 0.1 12 Noroeste 32 Noroeste 1.6 -- -- 99
2019-01-19 19:00:00 0.1 10 Norte 28 Sur 2.2 -- -- 94
2019-01-19 18:00:00 0.4 10 Sudeste 31 Norte 0.8 -- -- 90
2019-01-19 17:00:00 0 11 Oeste 54 Sur 0.8 -- -- 88
2019-01-19 16:00:00 0.1 16 Sur 45 Sur 1.4 -- -- 84
2019-01-19 15:00:00 1 10 Sudeste 36 Sur 0 -- -- 81
2019-01-19 14:00:00 0.4 9 Este 35 Sudeste 0 -- -- 83
2019-01-19 13:00:00 0.3 11 Sur 40 Sur 0 -- -- 83
2019-01-19 12:00:00 -0.2 7 Noroeste 31 Sur 0 -- -- 87
2019-01-19 11:00:00 -0.3 13 Norte 36 Sur 0 -- -- 80
2019-01-19 10:00:00 -1.4 7 Norte 37 Sudoeste 0 -- -- 83
2019-01-19 09:00:00 -1.9 9 Sur 28 Sudoeste 0 -- -- 85
2019-01-19 08:00:00 -1.6 7 Sudoeste 23 Sudoeste 0 -- -- 76
2019-01-19 07:00:00 -1.5 7 Oeste 22 Oeste 0 -- -- 79
2019-01-19 06:00:00 -1.2 10 Oeste 23 Noroeste 0 -- -- 84
2019-01-19 05:00:00 -0.8 8 Noroeste 20 Noroeste 0 -- -- 88
2019-01-19 04:00:00 -0.9 7 Noroeste 14 Oeste 0 -- -- 89
2019-01-19 03:00:00 -0.3 6 Sudoeste 17 Sudoeste 0 -- -- 81
2019-01-19 02:00:00 -0.6 3 Norte 15 Oeste 0 -- -- 86
2019-01-19 01:00:00 -0.7 5 Noroeste 15 Oeste 0 -- -- 90
2019-01-19 00:00:00 -1 8 Noroeste 19 Noroeste 0 -- -- 93